createdAt,value
2018-07-08T00:01:50.529Z,16.53
2018-07-08T00:04:19.402Z,16.52
2018-07-08T00:06:49.054Z,16.35
2018-07-08T00:09:17.720Z,16.33
2018-07-08T00:11:46.296Z,16.24
2018-07-08T00:14:15.007Z,16.25
2018-07-08T00:16:43.671Z,16.20
2018-07-08T00:19:12.363Z,16.21
2018-07-08T00:21:41.148Z,16.18
2018-07-08T00:24:09.819Z,16.13
2018-07-08T00:26:38.605Z,16.16
2018-07-08T00:29:07.205Z,16.20
2018-07-08T00:31:35.760Z,16.28
2018-07-08T00:34:04.379Z,16.34
2018-07-08T00:36:32.920Z,16.38
2018-07-08T00:39:01.716Z,16.42
2018-07-08T00:41:30.274Z,16.28
2018-07-08T00:43:58.809Z,16.19
2018-07-08T00:46:27.396Z,16.08
2018-07-08T00:48:56.013Z,16.19
2018-07-08T00:51:24.600Z,16.23
2018-07-08T00:53:53.200Z,16.18
2018-07-08T00:56:22.211Z,16.22
2018-07-08T00:58:50.951Z,16.23
2018-07-08T01:01:19.606Z,16.12
2018-07-08T01:03:48.169Z,16.09
2018-07-08T01:06:16.859Z,16.12
2018-07-08T01:08:45.525Z,16.03
2018-07-08T01:11:14.063Z,15.99
2018-07-08T01:13:42.620Z,15.96
2018-07-08T01:16:11.172Z,15.90
2018-07-08T01:18:39.939Z,15.89
2018-07-08T01:21:08.762Z,15.89
2018-07-08T01:23:37.385Z,15.87
2018-07-08T01:26:09.336Z,15.80
2018-07-08T01:28:38.359Z,15.81
2018-07-08T01:31:07.396Z,15.89
2018-07-08T01:33:35.965Z,15.98
2018-07-08T01:36:04.669Z,15.98
2018-07-08T01:38:33.257Z,16.02
2018-07-08T01:41:01.889Z,16.04
2018-07-08T01:43:30.649Z,16.09
2018-07-08T01:45:59.211Z,15.97
2018-07-08T01:48:27.763Z,15.89
2018-07-08T01:50:56.408Z,15.88
2018-07-08T01:53:25.470Z,15.87
2018-07-08T01:55:54.071Z,15.93
2018-07-08T01:58:22.892Z,15.98
2018-07-08T02:00:51.670Z,16.04
2018-07-08T02:03:20.228Z,16.11
2018-07-08T02:05:49.775Z,16.07
2018-07-08T02:08:18.401Z,15.95
2018-07-08T02:10:47.200Z,16.00
2018-07-08T02:13:15.967Z,15.88
2018-07-08T02:15:44.780Z,15.87
2018-07-08T02:18:13.467Z,15.94
2018-07-08T02:20:42.059Z,16.02
2018-07-08T02:23:10.813Z,16.09
2018-07-08T02:25:39.496Z,16.16
2018-07-08T02:28:08.064Z,16.14
2018-07-08T02:30:36.737Z,16.14
2018-07-08T02:33:05.451Z,16.16
2018-07-08T02:35:34.112Z,16.18
2018-07-08T02:38:02.811Z,16.21
2018-07-08T02:40:31.511Z,16.19
2018-07-08T02:43:00.328Z,16.23
2018-07-08T02:45:28.868Z,16.25
2018-07-08T02:47:57.436Z,16.28
2018-07-08T02:50:26.125Z,16.26
2018-07-08T02:52:54.672Z,16.24
2018-07-08T02:55:23.328Z,16.26
2018-07-08T02:57:52.299Z,16.31
2018-07-08T03:00:21.086Z,16.27
2018-07-08T03:02:49.748Z,16.30
2018-07-08T03:05:18.317Z,16.33
2018-07-08T03:07:46.945Z,16.31
2018-07-08T03:10:15.561Z,16.35
2018-07-08T03:12:44.112Z,16.34
2018-07-08T03:15:12.931Z,16.24
2018-07-08T03:17:41.886Z,16.02
2018-07-08T03:20:10.677Z,16.01
2018-07-08T03:22:39.616Z,16.02
2018-07-08T03:25:08.272Z,16.05
2018-07-08T03:27:36.852Z,15.97
2018-07-08T03:30:05.468Z,16.05
2018-07-08T03:32:33.992Z,15.78
2018-07-08T03:35:02.590Z,15.83
2018-07-08T03:37:31.293Z,15.88
2018-07-08T03:39:59.859Z,16.03
2018-07-08T03:42:28.404Z,16.20
2018-07-08T03:44:57.048Z,16.29
2018-07-08T03:47:25.733Z,16.35
2018-07-08T03:49:54.383Z,16.44
2018-07-08T03:52:37.019Z,16.46
2018-07-08T03:55:06.012Z,16.35
2018-07-08T03:57:34.574Z,16.27
2018-07-08T04:00:03.205Z,16.26
2018-07-08T04:02:32.634Z,16.25
2018-07-08T04:05:01.220Z,16.31
2018-07-08T04:07:30.689Z,16.20
2018-07-08T04:09:59.247Z,16.22
2018-07-08T04:12:27.781Z,16.26
2018-07-08T04:14:56.405Z,16.29
2018-07-08T04:17:24.996Z,16.29
2018-07-08T04:19:53.607Z,16.30
2018-07-08T04:22:22.172Z,16.28
2018-07-08T04:24:50.744Z,16.32
2018-07-08T04:27:19.369Z,16.43
2018-07-08T04:29:47.904Z,16.49
2018-07-08T04:32:16.552Z,16.58
2018-07-08T04:34:45.124Z,16.69
2018-07-08T04:37:13.862Z,16.78
2018-07-08T04:39:42.424Z,16.94
2018-07-08T04:42:10.943Z,16.93
2018-07-08T04:44:39.484Z,16.95
2018-07-08T04:47:08.282Z,16.94
2018-07-08T04:49:36.965Z,16.88
2018-07-08T04:52:05.669Z,16.89
2018-07-08T04:54:34.215Z,16.88
2018-07-08T04:57:02.795Z,16.85
2018-07-08T04:59:31.372Z,16.87
2018-07-08T05:01:59.925Z,16.88
2018-07-08T05:04:28.479Z,16.88
2018-07-08T05:06:57.051Z,16.92
2018-07-08T05:09:26.036Z,17.00
2018-07-08T05:11:54.629Z,17.05
2018-07-08T05:14:23.296Z,16.97
2018-07-08T05:16:51.863Z,17.04
2018-07-08T05:19:20.430Z,17.07
2018-07-08T05:21:49.116Z,17.11
2018-07-08T05:24:17.644Z,17.07
2018-07-08T05:26:51.208Z,17.12
2018-07-08T05:29:19.853Z,17.07
2018-07-08T05:31:48.470Z,17.10
2018-07-08T05:34:17.036Z,17.16
2018-07-08T05:36:45.580Z,17.21
2018-07-08T05:39:14.899Z,17.31
2018-07-08T05:41:43.511Z,17.37
2018-07-08T05:44:12.084Z,17.43
2018-07-08T05:46:40.930Z,17.39
2018-07-08T05:49:09.540Z,17.48
2018-07-08T05:51:38.100Z,17.52
2018-07-08T05:54:06.688Z,17.46
2018-07-08T05:56:35.212Z,17.48
2018-07-08T05:59:03.855Z,17.41
2018-07-08T06:01:32.476Z,17.38
2018-07-08T06:04:01.025Z,17.47
2018-07-08T06:06:30.665Z,17.52
2018-07-08T06:08:59.312Z,17.67
2018-07-08T06:11:28.280Z,17.76
2018-07-08T06:13:56.871Z,17.89
2018-07-08T06:16:25.494Z,17.96
2018-07-08T06:18:54.041Z,18.05
2018-07-08T06:21:22.627Z,18.16
2018-07-08T06:23:51.904Z,18.11
2018-07-08T06:26:20.776Z,18.14
2018-07-08T06:28:49.411Z,18.27
2018-07-08T06:31:17.995Z,18.28
2018-07-08T06:33:46.564Z,18.36
2018-07-08T06:36:15.163Z,18.44
2018-07-08T06:38:43.787Z,18.49
2018-07-08T06:41:12.516Z,18.51
2018-07-08T06:43:41.091Z,18.57
2018-07-08T06:46:09.776Z,18.66
2018-07-08T06:48:38.649Z,18.78
2018-07-08T06:51:07.484Z,18.94
2018-07-08T06:53:36.133Z,19.10
2018-07-08T06:56:04.733Z,19.21
2018-07-08T06:58:33.304Z,19.27
2018-07-08T07:01:02.092Z,19.39
2018-07-08T07:03:30.651Z,19.58
2018-07-08T07:05:59.189Z,19.65
2018-07-08T07:08:28.149Z,19.73
2018-07-08T07:10:56.778Z,19.75
2018-07-08T07:13:25.382Z,19.82
2018-07-08T07:15:54.022Z,19.98
2018-07-08T07:18:22.604Z,20.13
2018-07-08T07:20:51.171Z,20.22
2018-07-08T07:23:19.743Z,20.29
2018-07-08T07:25:48.288Z,20.36
2018-07-08T07:28:16.916Z,20.47
2018-07-08T07:30:45.487Z,20.53
2018-07-08T07:33:14.048Z,20.63
2018-07-08T07:35:42.624Z,20.67
2018-07-08T07:38:11.207Z,20.72
2018-07-08T07:40:39.769Z,20.78
2018-07-08T07:43:15.631Z,20.81
2018-07-08T07:45:44.430Z,20.88
2018-07-08T07:48:13.381Z,20.86
2018-07-08T07:50:42.183Z,21.00
2018-07-08T07:53:11.266Z,21.05
2018-07-08T08:01:20.308Z,21.26
2018-07-08T08:03:48.872Z,21.41
2018-07-08T08:06:19.451Z,21.60
2018-07-08T08:08:48.040Z,21.82
2018-07-08T08:11:16.976Z,21.99
2018-07-08T08:14:02.049Z,22.12
2018-07-08T08:16:30.665Z,22.21
2018-07-08T08:18:59.863Z,22.29
2018-07-08T08:21:28.646Z,22.30
2018-07-08T08:23:58.185Z,22.27
2018-07-08T08:26:27.570Z,22.44
2018-07-08T08:28:56.131Z,22.47
2018-07-08T08:31:24.948Z,22.44
2018-07-08T08:35:09.962Z,22.46
2018-07-08T08:37:40.731Z,22.33
2018-07-08T08:40:09.988Z,22.34
2018-07-08T08:42:38.710Z,22.36
2018-07-08T08:45:08.704Z,22.49
2018-07-08T08:47:37.277Z,22.45
2018-07-08T08:50:06.601Z,22.56
2018-07-08T08:52:35.202Z,22.72
2018-07-08T08:55:04.088Z,22.82
2018-07-08T08:57:32.660Z,23.01
2018-07-08T09:00:01.343Z,22.93
2018-07-08T09:02:30.232Z,23.18
2018-07-08T09:04:58.796Z,23.29
2018-07-08T09:07:27.653Z,23.26
2018-07-08T09:09:56.259Z,23.25
2018-07-08T09:12:24.792Z,23.21
2018-07-08T09:14:53.396Z,23.27
2018-07-08T09:17:22.083Z,23.27
2018-07-08T09:19:50.596Z,23.16
2018-07-08T09:22:19.211Z,23.21
2018-07-08T09:24:47.783Z,23.27
2018-07-08T09:27:16.948Z,23.23
2018-07-08T09:29:45.633Z,23.36
2018-07-08T09:32:14.211Z,23.61
2018-07-08T09:34:42.916Z,23.76
2018-07-08T09:37:11.583Z,23.77
2018-07-08T09:39:40.161Z,23.82
2018-07-08T09:42:08.718Z,23.96
2018-07-08T09:44:37.836Z,23.97
2018-07-08T09:47:06.515Z,23.99
2018-07-08T09:49:35.591Z,24.03
2018-07-08T09:52:04.456Z,24.08
2018-07-08T09:54:33.019Z,24.08
2018-07-08T09:57:01.561Z,24.16
2018-07-08T09:59:30.221Z,24.25
2018-07-08T10:01:58.812Z,24.44
2018-07-08T10:04:27.426Z,24.64
2018-07-08T10:06:56.834Z,24.75
2018-07-08T10:09:26.032Z,24.77
2018-07-08T10:11:55.485Z,24.89
2018-07-08T10:14:24.752Z,25.21
2018-07-08T10:16:53.335Z,25.19
2018-07-08T10:19:22.246Z,25.19
2018-07-08T10:21:50.753Z,25.33
2018-07-08T10:24:19.281Z,25.57
2018-07-08T10:26:57.930Z,25.78
2018-07-08T10:29:26.470Z,25.68
2018-07-08T10:40:25.963Z,24.84
2018-07-08T10:42:54.564Z,24.78
2018-07-08T10:45:23.169Z,24.83
2018-07-08T10:47:51.708Z,24.87
2018-07-08T10:50:20.407Z,24.71
2018-07-08T10:52:49.041Z,24.57
2018-07-08T10:55:17.685Z,24.47
2018-07-08T10:57:46.304Z,24.43
2018-07-08T11:00:14.968Z,24.21
2018-07-08T11:02:43.616Z,24.04
2018-07-08T11:05:12.449Z,24.08
2018-07-08T11:07:41.043Z,24.14
2018-07-08T11:10:09.673Z,24.21
2018-07-08T11:12:38.236Z,24.13
2018-07-08T11:15:06.894Z,24.30
2018-07-08T11:17:35.436Z,24.65
2018-07-08T11:20:04.314Z,24.92
2018-07-08T11:22:32.863Z,25.34
2018-07-08T11:25:01.521Z,25.40
2018-07-08T11:27:30.154Z,25.34
2018-07-08T11:29:58.915Z,25.26
2018-07-08T11:32:27.507Z,25.23
2018-07-08T11:34:56.473Z,24.97
2018-07-08T11:37:25.362Z,24.77
2018-07-08T11:39:54.303Z,24.76
2018-07-08T11:42:22.868Z,24.72
2018-07-08T11:44:51.566Z,24.71
2018-07-08T11:47:20.193Z,24.69
2018-07-08T11:49:48.917Z,24.74
2018-07-08T11:52:17.679Z,24.71
2018-07-08T11:54:46.269Z,24.71
2018-07-08T11:57:15.520Z,24.91
2018-07-08T11:59:44.137Z,24.72
2018-07-08T12:02:12.826Z,24.72
2018-07-08T12:04:41.396Z,24.49
2018-07-08T12:07:10.136Z,24.17
2018-07-08T12:09:38.825Z,24.26
2018-07-08T12:12:08.323Z,24.49
2018-07-08T12:14:37.925Z,24.59
2018-07-08T12:17:06.664Z,24.62
2018-07-08T12:19:36.102Z,24.73
2018-07-08T12:22:04.757Z,24.62
2018-07-08T12:24:33.325Z,24.38
2018-07-08T12:27:02.031Z,24.77
2018-07-08T12:29:30.798Z,24.97
2018-07-08T12:31:59.447Z,24.98
2018-07-08T12:34:28.029Z,25.09
2018-07-08T12:36:56.668Z,25.16
2018-07-08T12:39:25.380Z,24.82
2018-07-08T12:41:53.958Z,24.57
2018-07-08T12:44:22.545Z,24.70
2018-07-08T12:46:51.108Z,24.84
2018-07-08T12:49:19.688Z,25.02
2018-07-08T12:51:48.288Z,24.77
2018-07-08T12:54:17.208Z,24.88
2018-07-08T12:56:45.872Z,24.59
2018-07-08T12:59:14.514Z,24.51
2018-07-08T13:01:43.073Z,24.18
2018-07-08T13:04:11.731Z,24.12
2018-07-08T13:06:40.388Z,24.49
2018-07-08T13:09:09.028Z,24.50
2018-07-08T13:11:37.639Z,24.53
2018-07-08T13:14:06.231Z,24.61
2018-07-08T13:16:34.807Z,24.49
2018-07-08T13:19:03.444Z,24.26
2018-07-08T13:21:32.000Z,24.25
2018-07-08T13:24:00.619Z,24.48
2018-07-08T13:26:29.288Z,24.83
2018-07-08T13:28:58.021Z,24.99
2018-07-08T13:31:26.582Z,25.20
2018-07-08T13:33:55.125Z,25.46
2018-07-08T13:39:14.382Z,25.49
2018-07-08T13:41:42.928Z,25.26
2018-07-08T13:44:11.524Z,25.40
2018-07-08T13:49:30.868Z,25.90
2018-07-08T13:51:59.435Z,25.96
2018-07-08T13:54:28.000Z,25.82
2018-07-08T13:56:56.563Z,25.64
2018-07-08T13:59:25.172Z,25.93
2018-07-08T14:01:53.810Z,26.25
2018-07-08T14:04:22.416Z,26.40
2018-07-08T14:06:51.528Z,26.54
2018-07-08T14:09:20.163Z,26.87
2018-07-08T14:11:52.166Z,26.85
2018-07-08T14:14:20.765Z,26.49
2018-07-08T14:16:50.306Z,26.36
2018-07-08T14:19:18.869Z,26.20
2018-07-08T14:21:47.456Z,26.30
2018-07-08T14:24:16.090Z,26.46
2018-07-08T14:26:44.628Z,26.24
2018-07-08T14:29:13.180Z,26.50
2018-07-08T14:31:41.969Z,26.72
2018-07-08T14:34:11.296Z,26.73
2018-07-08T14:36:39.871Z,26.59
2018-07-08T14:39:09.107Z,26.16
2018-07-08T14:41:37.837Z,26.04
2018-07-08T14:44:06.464Z,26.38
2018-07-08T14:46:35.037Z,26.36
2018-07-08T14:49:03.649Z,26.48
2018-07-08T14:51:32.235Z,26.39
2018-07-08T14:54:00.805Z,26.42
2018-07-08T14:56:29.462Z,26.64
2018-07-08T14:58:58.081Z,26.72
2018-07-08T15:01:26.758Z,26.53
2018-07-08T15:03:55.449Z,26.36
2018-07-08T15:06:24.197Z,26.32
2018-07-08T15:08:52.791Z,26.21
2018-07-08T15:11:21.346Z,26.04
2018-07-08T15:13:50.094Z,25.93
2018-07-08T15:16:18.767Z,25.78
2018-07-08T15:18:47.388Z,25.65
2018-07-08T15:21:16.038Z,25.51
2018-07-08T15:23:44.521Z,25.56
2018-07-08T15:26:13.123Z,25.56
2018-07-08T15:28:41.661Z,25.61
2018-07-08T15:31:10.461Z,25.64
2018-07-08T15:33:39.053Z,25.67
2018-07-08T15:36:07.689Z,25.66
2018-07-08T15:38:36.300Z,25.70
2018-07-08T15:41:05.037Z,25.72
2018-07-08T15:43:33.965Z,25.53
2018-07-08T15:46:02.524Z,25.16
2018-07-08T15:48:31.968Z,25.11
2018-07-08T15:51:00.974Z,25.02
2018-07-08T15:53:29.836Z,24.92
2018-07-08T15:55:58.500Z,24.90
2018-07-08T15:58:27.177Z,24.84
2018-07-08T16:00:55.772Z,24.80
2018-07-08T16:03:24.384Z,24.88
2018-07-08T16:05:52.989Z,24.82
2018-07-08T16:08:22.335Z,24.84
2018-07-08T16:10:50.945Z,24.59
2018-07-08T16:13:20.232Z,24.65
2018-07-08T16:15:48.777Z,24.58
2018-07-08T16:18:17.418Z,24.50
2018-07-08T16:20:45.904Z,24.54
2018-07-08T16:23:15.088Z,24.58
2018-07-08T16:25:43.687Z,24.71
2018-07-08T16:28:12.453Z,24.82
2018-07-08T16:30:41.134Z,24.69
2018-07-08T16:33:10.245Z,24.78
2018-07-08T16:35:43.276Z,24.80
2018-07-08T16:38:11.901Z,24.94
2018-07-08T16:40:40.528Z,24.80
2018-07-08T16:43:09.509Z,24.84
2018-07-08T16:45:38.261Z,24.75
2018-07-08T16:48:06.840Z,24.65
2018-07-08T16:50:35.421Z,24.89
2018-07-08T16:53:04.167Z,24.79
2018-07-08T16:55:32.787Z,24.81
2018-07-08T16:58:01.492Z,24.91
2018-07-08T17:00:30.040Z,24.79
2018-07-08T17:02:58.964Z,24.60
2018-07-08T17:05:27.657Z,24.50
2018-07-08T17:07:56.196Z,24.54
2018-07-08T17:10:24.870Z,24.62
2018-07-08T17:12:53.908Z,24.58
2018-07-08T17:15:22.551Z,24.55
2018-07-08T17:17:51.144Z,24.56
2018-07-08T17:20:19.862Z,24.37
2018-07-08T17:22:48.794Z,24.40
2018-07-08T17:25:17.484Z,24.15
2018-07-08T17:27:46.134Z,24.12
2018-07-08T17:30:15.447Z,24.07
2018-07-08T17:32:44.403Z,24.08
2018-07-08T17:35:12.974Z,24.06
2018-07-08T17:37:41.525Z,24.13
2018-07-08T17:40:10.256Z,24.19
2018-07-08T17:42:38.900Z,24.23
2018-07-08T17:45:07.668Z,23.99
2018-07-08T17:47:36.355Z,23.78
2018-07-08T17:50:05.004Z,23.66
2018-07-08T17:52:33.602Z,23.72
2018-07-08T17:55:02.247Z,23.78
2018-07-08T17:57:30.839Z,23.77
2018-07-08T17:59:59.548Z,23.80
2018-07-08T18:02:29.570Z,23.80
2018-07-08T18:04:58.211Z,23.76
2018-07-08T18:07:27.752Z,23.74
2018-07-08T18:09:56.700Z,23.74
2018-07-08T18:12:26.252Z,23.63
2018-07-08T18:14:54.874Z,23.40
2018-07-08T18:17:23.469Z,23.39
2018-07-08T18:19:52.259Z,23.09
2018-07-08T18:22:21.534Z,22.96
2018-07-08T18:24:50.113Z,22.99
2018-07-08T18:27:18.984Z,22.90
2018-07-08T18:29:47.590Z,22.83
2018-07-08T18:32:16.160Z,22.76
2018-07-08T18:34:44.764Z,22.77
2018-07-08T18:37:13.389Z,22.78
2018-07-08T18:39:42.980Z,22.90
2018-07-08T18:42:11.553Z,22.80
2018-07-08T18:44:40.144Z,22.74
2018-07-08T18:47:08.727Z,22.71
2018-07-08T18:49:37.721Z,22.69
2018-07-08T18:52:06.700Z,22.49
2018-07-08T18:54:35.360Z,22.33
2018-07-08T18:57:04.016Z,22.32
2018-07-08T18:59:33.338Z,22.31
2018-07-08T19:02:01.898Z,22.32
2018-07-08T19:04:30.931Z,22.28
2018-07-08T19:07:00.511Z,22.24
2018-07-08T19:09:29.152Z,22.19
2018-07-08T19:11:57.805Z,22.02
2018-07-08T19:14:26.912Z,21.88
2018-07-08T19:16:55.496Z,21.83
2018-07-08T19:19:24.232Z,21.60
2018-07-08T19:21:53.002Z,21.55
2018-07-08T19:24:21.615Z,21.60
2018-07-08T19:26:50.184Z,21.64
2018-07-08T19:29:18.786Z,21.50
2018-07-08T19:31:47.364Z,21.34
2018-07-08T19:34:16.020Z,21.27
2018-07-08T19:36:44.679Z,21.18
2018-07-08T19:39:13.298Z,21.09
2018-07-08T19:41:42.276Z,21.14
2018-07-08T19:44:10.864Z,21.19
2018-07-08T19:46:39.417Z,21.22
2018-07-08T19:49:08.012Z,21.15
2018-07-08T19:51:36.619Z,21.18
2018-07-08T19:54:05.621Z,21.17
2018-07-08T19:56:34.398Z,21.20
2018-07-08T19:59:03.497Z,21.22
2018-07-08T20:01:32.060Z,20.87
2018-07-08T20:04:00.628Z,20.93
2018-07-08T20:06:30.077Z,20.99
2018-07-08T20:08:59.537Z,21.03
2018-07-08T20:11:28.155Z,20.95
2018-07-08T20:13:57.199Z,20.78
2018-07-08T20:16:25.877Z,20.54
2018-07-08T20:18:54.383Z,20.51
2018-07-08T20:21:23.352Z,20.33
2018-07-08T20:23:51.912Z,20.42
2018-07-08T20:26:20.650Z,20.51
2018-07-08T20:28:49.203Z,20.55
2018-07-08T20:31:17.749Z,20.44
2018-07-08T20:33:46.300Z,20.54
2018-07-08T20:36:14.884Z,20.55
2018-07-08T20:38:43.529Z,20.54
2018-07-08T20:46:52.699Z,20.42
2018-07-08T20:49:21.300Z,20.34
2018-07-08T20:51:49.853Z,20.24
2018-07-08T20:54:19.461Z,20.21
2018-07-08T20:56:49.931Z,20.21
2018-07-08T20:59:18.640Z,20.09
2018-07-08T21:01:48.017Z,20.11
2018-07-08T21:04:16.663Z,19.96
2018-07-08T21:06:45.872Z,20.07
2018-07-08T21:09:14.767Z,20.06
2018-07-08T21:11:43.356Z,20.04
2018-07-08T21:14:12.040Z,19.95
2018-07-08T21:16:40.677Z,19.90
2018-07-08T21:19:09.322Z,19.79
2018-07-08T21:21:38.098Z,19.69
2018-07-08T21:24:08.344Z,19.63
2018-07-08T21:26:36.928Z,19.61
2018-07-08T21:29:05.580Z,19.63
2018-07-08T21:31:34.184Z,19.64
2018-07-08T21:34:02.945Z,19.57
2018-07-08T21:36:31.569Z,19.59
2018-07-08T21:39:00.352Z,19.63
2018-07-08T21:41:28.924Z,19.73
2018-07-08T21:43:57.636Z,19.70
2018-07-08T21:46:26.511Z,19.65
2018-07-08T21:48:55.093Z,19.50
2018-07-08T21:51:24.185Z,19.28
2018-07-08T21:53:53.343Z,19.15
2018-07-08T21:56:22.027Z,19.22
2018-07-08T21:58:50.657Z,19.33
2018-07-08T22:01:21.339Z,19.47
2018-07-08T22:03:50.640Z,19.57
2018-07-08T22:06:20.716Z,19.56
2018-07-08T22:08:50.116Z,19.44
2018-07-08T22:11:18.860Z,19.32
2018-07-08T22:13:47.397Z,19.31
2018-07-08T22:16:16.320Z,19.27
2018-07-08T22:18:44.959Z,19.32
2018-07-08T22:21:13.548Z,19.45
2018-07-08T22:23:42.104Z,19.50
2018-07-08T22:26:10.699Z,19.62
2018-07-08T22:28:39.267Z,19.59
2018-07-08T22:31:07.993Z,19.50
2018-07-08T22:33:36.803Z,19.40
2018-07-08T22:36:05.402Z,19.23
2018-07-08T22:38:33.987Z,19.30
2018-07-08T22:41:02.705Z,19.33
2018-07-08T22:43:31.298Z,19.14
2018-07-08T22:45:59.887Z,18.97
2018-07-08T22:48:28.487Z,18.94
2018-07-08T22:50:57.032Z,19.02
2018-07-08T22:53:25.701Z,19.17
2018-07-08T22:55:54.235Z,19.21
2018-07-08T22:58:22.807Z,19.20
2018-07-08T23:01:02.317Z,19.19
2018-07-08T23:04:05.788Z,19.13
2018-07-08T23:06:34.579Z,18.98
2018-07-08T23:09:04.680Z,18.87
2018-07-08T23:11:33.336Z,18.70
2018-07-08T23:14:01.905Z,18.75
2018-07-08T23:16:30.767Z,18.70
2018-07-08T23:18:59.324Z,18.57
2018-07-08T23:21:27.900Z,18.61
2018-07-08T23:23:56.420Z,18.69
2018-07-08T23:26:24.984Z,18.77
2018-07-08T23:28:53.604Z,18.81
2018-07-08T23:31:22.144Z,18.77
2018-07-08T23:33:50.701Z,18.75
2018-07-08T23:36:19.307Z,18.77
2018-07-08T23:38:47.901Z,18.71
2018-07-08T23:41:16.440Z,18.66
2018-07-08T23:43:45.028Z,18.81
2018-07-08T23:46:13.645Z,18.96
2018-07-08T23:48:42.176Z,19.02
2018-07-08T23:51:10.982Z,19.03
2018-07-08T23:53:39.555Z,19.06
2018-07-08T23:56:08.407Z,19.06
2018-07-08T23:58:36.991Z,19.06
